Strona główna
METAR-TAF:

METAR-TAF

Lotnisko :

Cascavel, Parana, Brazylia

Szerokość geograficzna: 25-00-08S, Długość geograficzna: 53-30-07W, wysokość: 754 m

Aktualna obserwacja pogody

Raport powstał 4 godziny i 20 minut temu, godzina 18:00 UTC
Wiatr 12 kt od wschodnio-północny wschód
Temperatura 18°C
Wilgotność 88%
Ciśnienie 1020 hPa
Widzialność: 8000 m
Zachmurzenie całkowite na wysokości 300 ft

METAR: SBCA 041800Z 06012KT 8000 OVC003 18/16 Q1020

czas: 19:20 (22:20 UTC)


TAF: brakujący

Obserwacja i prognoza pogody dla ponad 4000 lotnisk (raport METAR i TAF).

Dostępne stacje oznaczono żółtymi i czerwonymi punktami na mapie.

Najedź kursorem aby zobaczyć nazwę stacji.

Kliknij aby zobaczyć obserwacje i prognozy pogody.

Aby zmienić mapę: kliknij na zielony przycisk z czarnym krzyżykiem, aby powiększyć; na zielony przycisk z myślnikiem, aby pomniejszyć; na zielone strzałki, aby przejść do map sąsiednich.


METAR-TAF: